Time;durP1;ratioP1;P1;durP2;ratioP2;P2;SDS_P1;SDS_P2;PMS_P1;PMS_P2;Temp;Humidity;BMP_temperature;BMP_pressure;BME280_temperature;BME280_humidity;BME280_pressure;Samples;Min_cycle;Max_cycle;Signal;HPM_P1;HPM_P2
2022/08/01 00:02:01;;;;;;;;;;;21.50;99.90;;;;;;5103670;28;19920;-69
2022/08/01 00:04:29;;;;;;;;;;;21.40;99.90;;;;;;5103324;28;19965;-69
2022/08/01 00:06:56;;;;;;;;;;;21.40;99.90;;;;;;5103671;28;19953;-69
2022/08/01 00:09:22;;;;;;;;;;;21.30;99.90;;;;;;5103435;28;20264;-69
2022/08/01 00:11:49;;;;;;;;;;;21.30;99.90;;;;;;5103563;28;20115;-69
2022/08/01 00:14:15;;;;;;;;;;;21.20;99.90;;;;;;5103328;28;19958;-69
2022/08/01 00:16:42;;;;;;;;;;;21.30;99.90;;;;;;5103325;28;20098;-69
2022/08/01 00:19:09;;;;;;;;;;;21.30;99.90;;;;;;5103897;28;19920;-69
2022/08/01 00:21:37;;;;;;;;;;;21.20;99.90;;;;;;5103668;28;19920;-69
2022/08/01 00:24:03;;;;;;;;;;;21.20;99.90;;;;;;5103171;28;19920;-69
2022/08/01 00:26:30;;;;;;;;;;;21.20;99.90;;;;;;5103284;28;19987;-69
2022/08/01 00:28:57;;;;;;;;;;;21.10;99.90;;;;;;5103411;28;19963;-69
2022/08/01 00:31:23;;;;;;;;;;;21.10;99.90;;;;;;5103379;28;19947;-69
2022/08/01 00:33:50;;;;;;;;;;;21.10;99.90;;;;;;5103292;28;19947;-69
2022/08/01 00:36:17;;;;;;;;;;;21.10;99.90;;;;;;5103348;28;20267;-69
2022/08/01 00:38:45;;;;;;;;;;;21.00;99.90;;;;;;5103257;28;20250;-69
2022/08/01 00:41:11;;;;;;;;;;;21.00;99.90;;;;;;5103291;28;20144;-69
2022/08/01 00:43:38;;;;;;;;;;;21.00;99.90;;;;;;5103048;28;19951;-69
2022/08/01 00:46:04;;;;;;;;;;;21.00;99.90;;;;;;5103150;28;19920;-70
2022/08/01 00:48:31;;;;;;;;;;;21.00;99.90;;;;;;5103117;28;19927;-69
2022/08/01 00:50:58;;;;;;;;;;;21.00;99.90;;;;;;5103197;28;19958;-69
2022/08/01 00:53:25;;;;;;;;;;;20.90;99.90;;;;;;5103072;28;19951;-69
2022/08/01 00:55:54;;;;;;;;;;;20.90;99.90;;;;;;5102678;28;19927;-69
2022/08/01 00:58:20;;;;;;;;;;;20.90;99.90;;;;;;5103159;28;19947;-69
2022/08/01 01:00:47;;;;;;;;;;;20.80;99.90;;;;;;5102958;28;19971;-69
2022/08/01 01:03:14;;;;;;;;;;;20.80;99.90;;;;;;5102724;28;19927;-69
2022/08/01 01:05:42;;;;;;;;;;;20.80;99.90;;;;;;5103182;28;19958;-69
2022/08/01 01:08:13;;;;;;;;;;;20.80;99.90;;;;;;5102964;28;19927;-69
2022/08/01 01:10:43;;;;;;;;;;;20.80;99.90;;;;;;5103127;28;20275;-69
2022/08/01 01:13:13;;;;;;;;;;;20.70;99.90;;;;;;5102732;28;19983;-69
2022/08/01 01:15:41;;;;;;;;;;;20.70;99.90;;;;;;5103160;28;19920;-69
2022/08/01 01:18:10;;;;;;;;;;;20.70;99.90;;;;;;5102903;28;19952;-69
2022/08/01 01:20:38;;;;;;;;;;;20.70;99.90;;;;;;5103302;28;20096;-69
2022/08/01 01:23:22;;;;;;;;;;;20.70;99.90;;;;;;5102659;28;20291;-69
2022/08/01 01:25:56;;;;;;;;;;;20.60;99.90;;;;;;5102956;28;19920;-69
2022/08/01 01:28:28;;;;;;;;;;;20.60;99.90;;;;;;5103141;28;20116;-69
2022/08/01 01:30:57;;;;;;;;;;;20.50;99.90;;;;;;5103069;28;19947;-69
2022/08/01 01:33:28;;;;;;;;;;;20.50;99.90;;;;;;5102655;28;19951;-69
2022/08/01 01:35:58;;;;;;;;;;;20.50;99.90;;;;;;5102697;28;19919;-69
2022/08/01 01:38:27;;;;;;;;;;;20.40;99.90;;;;;;5106061;28;19947;-69
2022/08/01 01:40:54;;;;;;;;;;;20.40;99.90;;;;;;5106511;28;19958;-69
2022/08/01 01:43:21;;;;;;;;;;;20.30;99.90;;;;;;5105795;28;19987;-69
2022/08/01 01:45:48;;;;;;;;;;;20.30;99.90;;;;;;5105819;28;19987;-69
2022/08/01 01:48:17;;;;;;;;;;;20.30;99.90;;;;;;5106083;28;19952;-69
2022/08/01 01:50:46;;;;;;;;;;;20.30;99.90;;;;;;5106036;28;20130;-69
2022/08/01 01:53:13;;;;;;;;;;;20.30;99.90;;;;;;5105718;28;19920;-69
2022/08/01 01:55:40;;;;;;;;;;;20.20;99.90;;;;;;5105869;28;20174;-69
2022/08/01 01:58:08;;;;;;;;;;;20.30;99.90;;;;;;5106120;28;20132;-69
2022/08/01 02:00:35;;;;;;;;;;;20.20;99.90;;;;;;5106216;28;19974;-70
2022/08/01 02:03:03;;;;;;;;;;;20.20;99.90;;;;;;5105635;28;19920;-69
2022/08/01 02:05:34;;;;;;;;;;;20.20;99.90;;;;;;5106051;28;19958;-69
2022/08/01 02:08:00;;;;;;;;;;;20.20;99.90;;;;;;5105967;28;19928;-69
2022/08/01 02:10:28;;;;;;;;;;;20.20;99.90;;;;;;5105916;28;20105;-69
2022/08/01 02:12:55;;;;;;;;;;;20.20;99.90;;;;;;5105515;28;19952;-69
2022/08/01 02:15:23;;;;;;;;;;;20.20;99.90;;;;;;5105823;28;19951;-69
2022/08/01 02:17:51;;;;;;;;;;;20.10;99.90;;;;;;5105644;28;19927;-69
2022/08/01 02:20:18;;;;;;;;;;;20.10;99.90;;;;;;5105781;28;20200;-69
2022/08/01 02:22:48;;;;;;;;;;;20.10;99.90;;;;;;5105346;28;20115;-69
2022/08/01 02:25:19;;;;;;;;;;;20.10;99.90;;;;;;5105709;28;19991;-69
2022/08/01 02:27:50;;;;;;;;;;;20.00;99.90;;;;;;5105372;28;19991;-69
2022/08/01 02:30:17;;;;;;;;;;;20.00;99.90;;;;;;5105479;28;19955;-69
2022/08/01 02:32:46;;;;;;;;;;;20.00;99.90;;;;;;5105486;28;19951;-69
2022/08/01 02:35:14;;;;;;;;;;;20.00;99.90;;;;;;5105594;28;19986;-69
2022/08/01 02:37:42;;;;;;;;;;;19.90;99.90;;;;;;5105450;28;19920;-69
2022/08/01 02:40:11;;;;;;;;;;;19.80;99.90;;;;;;5105410;28;19954;-69
2022/08/01 02:42:38;;;;;;;;;;;19.80;99.90;;;;;;5104955;28;20198;-69
2022/08/01 02:45:08;;;;;;;;;;;19.70;99.90;;;;;;5104692;28;20155;-69
2022/08/01 02:47:36;;;;;;;;;;;19.70;99.90;;;;;;5104105;28;19920;-69
2022/08/01 02:50:04;;;;;;;;;;;19.70;99.90;;;;;;5105209;28;19920;-69
2022/08/01 02:52:31;;;;;;;;;;;19.70;99.90;;;;;;5105098;28;19947;-69
2022/08/01 02:54:59;;;;;;;;;;;19.60;99.90;;;;;;5104818;28;19950;-69
2022/08/01 02:57:28;;;;;;;;;;;19.60;99.90;;;;;;5104754;28;19920;-69
2022/08/01 02:59:56;;;;;;;;;;;19.60;99.90;;;;;;5104933;28;19951;-69
2022/08/01 03:02:24;;;;;;;;;;;19.50;99.90;;;;;;5105186;28;19966;-69
2022/08/01 03:04:51;;;;;;;;;;;19.50;99.90;;;;;;5104717;28;20166;-69
2022/08/01 03:07:18;;;;;;;;;;;19.50;99.90;;;;;;5104655;28;19920;-69
2022/08/01 03:09:46;;;;;;;;;;;19.40;99.90;;;;;;5104554;28;19958;-68
2022/08/01 03:12:15;;;;;;;;;;;19.50;99.90;;;;;;5104654;28;20251;-70
2022/08/01 03:14:43;;;;;;;;;;;19.40;99.90;;;;;;5104371;28;19926;-69
2022/08/01 03:17:11;;;;;;;;;;;19.40;99.90;;;;;;5104501;28;20128;-69
2022/08/01 03:19:39;;;;;;;;;;;19.40;99.90;;;;;;5104421;28;19920;-69
2022/08/01 03:22:07;;;;;;;;;;;19.40;99.90;;;;;;5104275;28;19983;-69
2022/08/01 03:24:34;;;;;;;;;;;19.40;99.90;;;;;;5103931;28;19920;-69
2022/08/01 03:27:01;;;;;;;;;;;19.40;99.90;;;;;;5104533;28;19926;-69
2022/08/01 03:29:29;;;;;;;;;;;19.40;99.90;;;;;;5104311;28;19962;-69
2022/08/01 03:31:58;;;;;;;;;;;19.30;99.90;;;;;;5104435;28;20124;-69
2022/08/01 03:34:25;;;;;;;;;;;19.30;99.90;;;;;;5103990;28;20166;-69
2022/08/01 03:36:55;;;;;;;;;;;19.30;99.90;;;;;;5103988;28;20159;-69
2022/08/01 03:39:23;;;;;;;;;;;19.20;99.90;;;;;;5104167;28;19920;-68
2022/08/01 03:41:52;;;;;;;;;;;19.20;99.90;;;;;;5104509;28;19955;-69
2022/08/01 03:44:22;;;;;;;;;;;19.20;99.90;;;;;;5103467;28;19920;-69
2022/08/01 03:46:52;;;;;;;;;;;19.20;99.90;;;;;;5103284;28;19991;-69
2022/08/01 03:49:23;;;;;;;;;;;19.20;99.90;;;;;;5103686;28;20150;-69
2022/08/01 03:51:50;;;;;;;;;;;19.10;99.90;;;;;;5104059;28;19951;-69
2022/08/01 03:54:21;;;;;;;;;;;19.10;99.90;;;;;;5103625;28;19920;-69
2022/08/01 03:56:48;;;;;;;;;;;19.10;99.90;;;;;;5103987;28;19951;-69
2022/08/01 03:59:16;;;;;;;;;;;19.10;99.90;;;;;;5103609;28;19983;-69
2022/08/01 04:01:44;;;;;;;;;;;19.10;99.90;;;;;;5103672;28;19987;-69
2022/08/01 04:04:10;;;;;;;;;;;19.10;99.90;;;;;;5103797;28;19966;-69
2022/08/01 04:06:39;;;;;;;;;;;19.10;99.90;;;;;;5103896;28;19955;-69
2022/08/01 04:09:07;;;;;;;;;;;19.10;99.90;;;;;;5103627;28;19958;-69
2022/08/01 04:11:34;;;;;;;;;;;19.20;99.90;;;;;;5103799;28;19978;-69
2022/08/01 04:14:00;;;;;;;;;;;19.10;99.90;;;;;;5103394;28;20271;-69
2022/08/01 04:16:27;;;;;;;;;;;19.10;99.90;;;;;;5103430;28;19920;-69
2022/08/01 04:18:54;;;;;;;;;;;19.10;99.90;;;;;;5103766;28;19952;-69
2022/08/01 04:21:23;;;;;;;;;;;19.10;99.90;;;;;;5103757;28;19959;-69
2022/08/01 04:23:52;;;;;;;;;;;19.20;99.90;;;;;;5103323;28;19987;-69
2022/08/01 04:26:19;;;;;;;;;;;19.10;99.90;;;;;;5103552;28;19920;-69
2022/08/01 04:28:47;;;;;;;;;;;19.10;99.90;;;;;;5103632;28;19958;-69
2022/08/01 04:31:16;;;;;;;;;;;19.10;99.90;;;;;;5103241;28;19951;-69
2022/08/01 04:33:46;;;;;;;;;;;19.10;99.90;;;;;;5103629;28;19920;-69
2022/08/01 04:36:13;;;;;;;;;;;19.20;99.90;;;;;;5103411;28;19920;-69
2022/08/01 04:38:40;;;;;;;;;;;19.10;99.90;;;;;;5103285;28;19920;-69
2022/08/01 04:41:10;;;;;;;;;;;19.10;99.90;;;;;;5103350;28;20007;-69
2022/08/01 04:43:37;;;;;;;;;;;19.10;99.90;;;;;;5102949;28;19920;-69
2022/08/01 04:46:04;;;;;;;;;;;19.10;99.90;;;;;;5102266;28;19947;-69
2022/08/01 04:48:32;;;;;;;;;;;19.10;99.90;;;;;;5103119;28;19926;-69
2022/08/01 04:50:59;;;;;;;;;;;19.10;99.90;;;;;;5103393;28;19987;-69
2022/08/01 04:53:26;;;;;;;;;;;19.20;99.90;;;;;;5102847;28;19920;-69
2022/08/01 04:55:53;;;;;;;;;;;19.20;99.90;;;;;;5103136;28;20215;-69
2022/08/01 04:58:21;;;;;;;;;;;19.30;99.90;;;;;;5102101;28;19960;-69
2022/08/01 05:00:47;;;;;;;;;;;19.30;99.90;;;;;;5102272;28;19986;-69
2022/08/01 05:03:14;;;;;;;;;;;19.20;99.90;;;;;;5102696;28;19995;-69
2022/08/01 05:05:40;;;;;;;;;;;19.30;99.90;;;;;;5103220;28;19991;-69
2022/08/01 05:08:07;;;;;;;;;;;19.30;99.90;;;;;;5103000;28;20000;-69
2022/08/01 05:10:34;;;;;;;;;;;19.30;99.90;;;;;;5102995;28;19987;-69
2022/08/01 05:13:01;;;;;;;;;;;19.30;99.90;;;;;;5105431;28;19920;-69
2022/08/01 05:15:29;;;;;;;;;;;19.30;99.90;;;;;;5107033;28;19955;-69
2022/08/01 05:17:56;;;;;;;;;;;19.40;99.90;;;;;;5106869;28;19983;-69
2022/08/01 05:20:22;;;;;;;;;;;19.40;99.90;;;;;;5106795;28;19924;-69
2022/08/01 05:22:49;;;;;;;;;;;19.30;99.90;;;;;;5106440;28;20138;-70
2022/08/01 05:25:15;;;;;;;;;;;19.30;99.90;;;;;;5106805;28;19959;-69
2022/08/01 05:27:42;;;;;;;;;;;19.30;99.90;;;;;;5106839;28;19920;-69
2022/08/01 05:30:09;;;;;;;;;;;19.30;99.90;;;;;;5106898;28;19942;-69
2022/08/01 05:32:38;;;;;;;;;;;19.40;99.90;;;;;;5106653;28;19955;-69
2022/08/01 05:35:05;;;;;;;;;;;19.40;99.90;;;;;;5106542;28;20111;-69
2022/08/01 05:37:31;;;;;;;;;;;19.50;99.90;;;;;;5106246;28;19958;-69
2022/08/01 05:39:58;;;;;;;;;;;19.50;99.90;;;;;;5106550;28;19927;-69
2022/08/01 05:42:25;;;;;;;;;;;19.50;99.90;;;;;;5106579;28;19987;-69
2022/08/01 05:44:51;;;;;;;;;;;19.50;99.90;;;;;;5106498;28;20158;-69
2022/08/01 05:47:18;;;;;;;;;;;19.50;99.90;;;;;;5106113;28;20235;-69
2022/08/01 05:49:46;;;;;;;;;;;19.50;99.90;;;;;;5106911;28;19951;-69
2022/08/01 05:52:13;;;;;;;;;;;19.50;99.90;;;;;;5106172;28;19926;-69
2022/08/01 05:54:40;;;;;;;;;;;19.70;99.90;;;;;;5106311;28;19926;-69
2022/08/01 05:57:07;;;;;;;;;;;19.80;99.90;;;;;;5106328;28;19958;-70
2022/08/01 06:02:08;;;;;;;;;;;20.00;99.90;;;;;;5084066;28;19944;-70
2022/08/01 06:04:35;;;;;;;;;;;20.10;99.90;;;;;;5085511;28;20115;-71
2022/08/01 06:07:03;;;;;;;;;;;20.20;99.90;;;;;;5086051;28;20163;-71
2022/08/01 06:09:30;;;;;;;;;;;20.30;99.90;;;;;;5085821;28;20263;-71
2022/08/01 06:11:57;;;;;;;;;;;20.30;99.90;;;;;;5085834;28;19952;-71
2022/08/01 06:14:24;;;;;;;;;;;20.40;99.90;;;;;;5085425;28;19921;-71
2022/08/01 06:16:50;;;;;;;;;;;20.50;99.90;;;;;;5085615;28;19928;-71
2022/08/01 06:19:17;;;;;;;;;;;20.50;99.90;;;;;;5085591;28;19920;-71
2022/08/01 06:21:43;;;;;;;;;;;20.60;99.90;;;;;;5085708;28;19948;-71
2022/08/01 06:24:12;;;;;;;;;;;20.70;99.90;;;;;;5084578;28;20127;-71
2022/08/01 06:26:38;;;;;;;;;;;20.70;99.90;;;;;;5085407;28;19921;-70
2022/08/01 06:29:05;;;;;;;;;;;20.80;99.90;;;;;;5085360;28;19983;-71
2022/08/01 06:31:32;;;;;;;;;;;20.80;99.90;;;;;;5085274;28;19983;-71
2022/08/01 06:33:58;;;;;;;;;;;20.90;99.90;;;;;;5084784;28;19924;-71
2022/08/01 06:36:25;;;;;;;;;;;20.90;99.90;;;;;;5085248;28;19948;-71
2022/08/01 06:38:52;;;;;;;;;;;20.90;99.90;;;;;;5085367;28;19920;-70
2022/08/01 06:41:20;;;;;;;;;;;21.00;99.90;;;;;;5085134;28;19991;-70
2022/08/01 06:43:46;;;;;;;;;;;21.00;99.90;;;;;;5084856;28;19959;-71
2022/08/01 06:46:13;;;;;;;;;;;21.00;99.90;;;;;;5084916;28;19955;-71
2022/08/01 06:48:40;;;;;;;;;;;21.10;99.90;;;;;;5084789;28;19935;-70
2022/08/01 06:51:11;;;;;;;;;;;21.20;99.90;;;;;;5084985;28;19927;-70
2022/08/01 06:53:40;;;;;;;;;;;21.30;99.90;;;;;;5084011;28;20285;-70
2022/08/01 06:56:08;;;;;;;;;;;21.30;99.90;;;;;;5085076;28;19992;-70
2022/08/01 06:58:36;;;;;;;;;;;21.40;99.90;;;;;;5083772;28;19921;-73
2022/08/01 07:01:05;;;;;;;;;;;21.40;99.90;;;;;;5084390;28;19983;-70
2022/08/01 07:03:32;;;;;;;;;;;21.40;99.90;;;;;;5084399;28;20227;-70
2022/08/01 07:05:58;;;;;;;;;;;21.50;99.90;;;;;;5084593;28;19948;-70
2022/08/01 07:08:25;;;;;;;;;;;21.40;99.90;;;;;;5084532;28;19924;-70
2022/08/01 07:10:52;;;;;;;;;;;21.50;99.90;;;;;;5084803;28;19962;-70
2022/08/01 07:13:21;;;;;;;;;;;21.50;99.90;;;;;;5084100;28;19920;-72
2022/08/01 07:15:49;;;;;;;;;;;21.60;99.90;;;;;;5084240;28;19974;-70
2022/08/01 07:18:15;;;;;;;;;;;21.60;99.90;;;;;;5084540;28;20101;-70
2022/08/01 07:20:43;;;;;;;;;;;21.70;99.90;;;;;;5084269;28;20124;-70
2022/08/01 07:23:09;;;;;;;;;;;21.70;99.90;;;;;;5083781;28;19974;-70
2022/08/01 07:25:36;;;;;;;;;;;21.80;99.90;;;;;;5084160;28;19920;-71
2022/08/01 07:28:02;;;;;;;;;;;21.80;99.90;;;;;;5084146;28;19943;-70
2022/08/01 07:30:29;;;;;;;;;;;21.90;99.90;;;;;;5084196;28;19999;-71
2022/08/01 07:32:57;;;;;;;;;;;22.00;99.90;;;;;;5083876;28;19948;-70
2022/08/01 07:35:24;;;;;;;;;;;22.10;99.90;;;;;;5083267;28;20265;-70
2022/08/01 07:37:52;;;;;;;;;;;22.10;99.90;;;;;;5084055;28;19955;-70
2022/08/01 07:40:20;;;;;;;;;;;22.00;99.90;;;;;;5083841;28;19927;-73
2022/08/01 07:42:47;;;;;;;;;;;22.00;99.90;;;;;;5083585;28;20116;-70
2022/08/01 07:45:14;;;;;;;;;;;22.10;99.90;;;;;;5083880;28;19987;-70
2022/08/01 07:47:40;;;;;;;;;;;22.10;99.90;;;;;;5083698;28;20027;-70
2022/08/01 07:50:09;;;;;;;;;;;22.20;99.90;;;;;;5083659;28;19987;-71
2022/08/01 07:52:35;;;;;;;;;;;22.20;99.90;;;;;;5083596;28;19927;-71
2022/08/01 07:55:02;;;;;;;;;;;22.20;99.90;;;;;;5083603;28;19927;-72
2022/08/01 07:57:29;;;;;;;;;;;22.30;99.90;;;;;;5083545;28;19936;-71
2022/08/01 07:59:55;;;;;;;;;;;22.30;99.90;;;;;;5083555;28;20008;-71
2022/08/01 08:02:22;;;;;;;;;;;22.50;99.90;;;;;;5083522;28;20180;-71
2022/08/01 08:04:49;;;;;;;;;;;22.50;99.90;;;;;;5083313;28;19991;-71
2022/08/01 08:07:17;;;;;;;;;;;22.50;99.90;;;;;;5083648;28;19983;-71
2022/08/01 08:09:43;;;;;;;;;;;22.60;99.90;;;;;;5083375;28;19935;-71
2022/08/01 08:12:10;;;;;;;;;;;22.60;99.90;;;;;;5083779;28;19988;-71
2022/08/01 08:14:37;;;;;;;;;;;22.70;99.90;;;;;;5083380;28;19980;-71
2022/08/01 08:17:04;;;;;;;;;;;22.70;99.90;;;;;;5083509;28;19955;-71
2022/08/01 08:19:33;;;;;;;;;;;22.80;99.90;;;;;;5083799;28;19966;-70
2022/08/01 08:21:59;;;;;;;;;;;22.80;99.90;;;;;;5083351;28;19927;-71
2022/08/01 08:24:27;;;;;;;;;;;22.90;99.90;;;;;;5083066;28;20187;-71
2022/08/01 08:26:55;;;;;;;;;;;22.90;99.90;;;;;;5083296;28;19988;-70
2022/08/01 08:29:22;;;;;;;;;;;22.90;99.90;;;;;;5083151;28;20097;-70
2022/08/01 08:31:49;;;;;;;;;;;22.90;99.90;;;;;;5083271;28;19931;-71
2022/08/01 08:34:16;;;;;;;;;;;22.90;99.90;;;;;;5083099;28;19956;-71
2022/08/01 08:36:42;;;;;;;;;;;22.90;99.90;;;;;;5083182;28;20181;-70
2022/08/01 08:39:09;;;;;;;;;;;22.90;99.90;;;;;;5083209;28;19979;-71
2022/08/01 08:41:37;;;;;;;;;;;22.90;99.90;;;;;;5083210;28;19927;-71
2022/08/01 08:44:05;;;;;;;;;;;23.00;99.90;;;;;;5082860;28;19920;-70
2022/08/01 08:46:33;;;;;;;;;;;23.00;99.90;;;;;;5084789;28;19975;-70
2022/08/01 08:49:01;;;;;;;;;;;23.00;99.90;;;;;;5087350;28;20115;-71
2022/08/01 08:51:28;;;;;;;;;;;23.10;99.90;;;;;;5087015;28;19980;-71
2022/08/01 08:53:55;;;;;;;;;;;23.10;99.90;;;;;;5087006;28;19956;-71
2022/08/01 08:56:24;;;;;;;;;;;23.10;99.90;;;;;;5087267;28;20203;-70
2022/08/01 08:58:52;;;;;;;;;;;23.20;99.90;;;;;;5085862;28;20227;-71
2022/08/01 09:01:19;;;;;;;;;;;23.30;99.90;;;;;;5087377;28;19958;-70
2022/08/01 09:03:45;;;;;;;;;;;23.30;99.90;;;;;;5086539;28;19992;-71
2022/08/01 09:06:12;;;;;;;;;;;23.30;99.90;;;;;;5087329;28;19991;-71
2022/08/01 09:08:38;;;;;;;;;;;23.40;99.90;;;;;;5087141;28;19983;-70
2022/08/01 09:11:05;;;;;;;;;;;23.40;99.90;;;;;;5086919;28;19983;-70
2022/08/01 09:13:32;;;;;;;;;;;23.40;99.90;;;;;;5086496;28;19921;-70
2022/08/01 09:16:00;;;;;;;;;;;23.40;99.90;;;;;;5086496;28;19988;-71
2022/08/01 09:18:28;;;;;;;;;;;23.50;99.90;;;;;;5086557;28;19999;-70
2022/08/01 09:21:08;;;;;;;;;;;23.50;99.90;;;;;;5086765;28;19924;-71
2022/08/01 09:23:35;;;;;;;;;;;23.60;99.90;;;;;;5086332;28;19920;-71
2022/08/01 09:26:02;;;;;;;;;;;23.70;99.90;;;;;;5086530;28;19990;-70
2022/08/01 09:28:29;;;;;;;;;;;23.70;99.90;;;;;;5086375;28;20230;-69
2022/08/01 09:30:56;;;;;;;;;;;23.80;99.90;;;;;;5086201;28;19928;-70
2022/08/01 09:33:24;;;;;;;;;;;23.80;99.90;;;;;;5086454;28;19971;-70
2022/08/01 09:35:55;;;;;;;;;;;23.90;99.90;;;;;;5086502;28;19955;-71
2022/08/01 09:38:23;;;;;;;;;;;23.90;99.90;;;;;;5086451;28;19928;-71
2022/08/01 09:40:51;;;;;;;;;;;23.90;99.90;;;;;;5086189;28;20116;-71
2022/08/01 09:43:18;;;;;;;;;;;24.00;99.90;;;;;;5086033;28;19943;-70
2022/08/01 09:45:44;;;;;;;;;;;24.00;99.90;;;;;;5085956;28;19929;-70
2022/08/01 09:48:12;;;;;;;;;;;24.20;99.90;;;;;;5086454;28;19967;-70
2022/08/01 09:50:43;;;;;;;;;;;24.30;99.90;;;;;;5086118;28;19920;-70
2022/08/01 09:53:10;;;;;;;;;;;24.40;99.90;;;;;;5085813;28;19921;-70
2022/08/01 09:55:37;;;;;;;;;;;24.50;99.90;;;;;;5086027;28;20156;-70
2022/08/01 09:58:04;;;;;;;;;;;24.50;99.90;;;;;;5084570;28;19966;-70
2022/08/01 10:00:32;;;;;;;;;;;24.50;99.90;;;;;;5084865;28;20111;-71
2022/08/01 10:02:59;;;;;;;;;;;24.50;99.90;;;;;;5085963;28;19921;-71
2022/08/01 10:05:32;;;;;;;;;;;24.50;99.90;;;;;;5085679;28;19967;-71
2022/08/01 10:08:01;;;;;;;;;;;24.50;99.90;;;;;;5085623;28;19920;-70
2022/08/01 10:10:27;;;;;;;;;;;24.50;99.90;;;;;;5085416;28;20261;-71
2022/08/01 10:12:55;;;;;;;;;;;24.40;99.90;;;;;;5085607;28;19920;-71
2022/08/01 10:15:22;;;;;;;;;;;24.40;99.90;;;;;;5085821;28;20101;-70
2022/08/01 10:17:53;;;;;;;;;;;24.40;99.90;;;;;;5085703;28;20163;-71
2022/08/01 10:20:21;;;;;;;;;;;24.30;99.90;;;;;;5085644;28;19984;-71
2022/08/01 10:22:48;;;;;;;;;;;24.30;99.90;;;;;;5085126;28;19960;-71
2022/08/01 10:25:17;;;;;;;;;;;24.30;99.90;;;;;;5085133;28;19970;-70
2022/08/01 10:27:45;;;;;;;;;;;24.20;99.90;;;;;;5085498;28;19959;-71
2022/08/01 10:30:12;;;;;;;;;;;24.10;99.90;;;;;;5085754;28;19989;-71
2022/08/01 10:32:42;;;;;;;;;;;24.20;99.90;;;;;;5085094;28;19924;-70
2022/08/01 10:35:09;;;;;;;;;;;24.30;99.90;;;;;;5085177;28;19927;-70
2022/08/01 10:37:36;;;;;;;;;;;24.50;99.90;;;;;;5085050;28;19936;-71
2022/08/01 10:40:04;;;;;;;;;;;24.70;99.90;;;;;;5085479;28;19925;-70
2022/08/01 10:42:34;;;;;;;;;;;24.70;99.90;;;;;;5085153;28;19920;-69
2022/08/01 10:45:01;;;;;;;;;;;24.70;99.90;;;;;;5084755;28;20089;-70
2022/08/01 10:47:33;;;;;;;;;;;24.70;99.90;;;;;;5084871;28;20219;-70
2022/08/01 10:50:03;;;;;;;;;;;24.70;99.90;;;;;;5084859;28;19963;-71
2022/08/01 10:52:29;;;;;;;;;;;24.90;99.90;;;;;;5084812;28;19989;-71
2022/08/01 10:55:02;;;;;;;;;;;25.20;99.90;;;;;;5084756;28;19956;-72
2022/08/01 10:57:43;;;;;;;;;;;25.40;99.90;;;;;;5084447;28;19958;-71
2022/08/01 11:00:10;;;;;;;;;;;25.60;99.90;;;;;;5084876;28;19966;-70
2022/08/01 11:02:40;;;;;;;;;;;25.70;99.90;;;;;;5084484;28;19920;-74
2022/08/01 11:05:10;;;;;;;;;;;25.90;99.90;;;;;;5084685;28;19991;-70
2022/08/01 11:07:41;;;;;;;;;;;26.00;99.90;;;;;;5084829;28;19921;-71
2022/08/01 11:10:11;;;;;;;;;;;26.20;99.90;;;;;;5083482;28;20175;-70
2022/08/01 11:12:41;;;;;;;;;;;26.40;99.90;;;;;;5084370;28;19956;-70
2022/08/01 11:15:24;;;;;;;;;;;26.60;99.90;;;;;;5084153;28;19999;-70
2022/08/01 11:17:51;;;;;;;;;;;26.80;99.90;;;;;;5084267;28;19927;-70
2022/08/01 11:20:19;;;;;;;;;;;27.00;99.90;;;;;;5084645;28;19921;-70
2022/08/01 11:23:04;;;;;;;;;;;27.00;99.90;;;;;;5084766;28;19956;-71
2022/08/01 11:25:47;;;;;;;;;;;26.80;99.90;;;;;;5084119;28;19921;-71
2022/08/01 11:28:23;;;;;;;;;;;26.70;99.90;;;;;;5083586;28;19920;-70
2022/08/01 11:30:54;;;;;;;;;;;26.80;99.90;;;;;;5084165;28;19936;-70
2022/08/01 11:33:40;;;;;;;;;;;26.80;99.90;;;;;;5083742;28;19921;-70
2022/08/01 11:36:21;;;;;;;;;;;27.10;99.90;;;;;;5083753;28;19952;-72
2022/08/01 11:38:48;;;;;;;;;;;27.30;99.90;;;;;;5083896;28;19959;-71
2022/08/01 11:41:16;;;;;;;;;;;27.30;99.90;;;;;;5083961;28;19974;-71
2022/08/01 11:43:56;;;;;;;;;;;27.30;99.90;;;;;;5083666;28;19952;-71
2022/08/01 11:46:37;;;;;;;;;;;27.40;99.90;;;;;;5083579;28;20093;-71
2022/08/01 11:49:24;;;;;;;;;;;27.50;99.90;;;;;;5082754;28;19943;-71
2022/08/01 11:52:07;;;;;;;;;;;27.70;99.90;;;;;;5084104;28;19920;-70
2022/08/01 11:54:39;;;;;;;;;;;28.00;99.90;;;;;;5083811;28;20108;-71
2022/08/01 11:57:07;;;;;;;;;;;28.00;99.90;;;;;;5083079;28;20097;-74
2022/08/01 11:59:38;;;;;;;;;;;28.20;99.90;;;;;;5083401;28;19940;-71
2022/08/01 12:02:14;;;;;;;;;;;28.40;99.90;;;;;;5122164;23;20044;-92
2022/08/01 12:04:50;;;;;;;;;;;28.50;99.90;;;;;;5118539;28;19931;-94
2022/08/01 12:07:17;;;;;;;;;;;28.70;99.90;;;;;;5118693;28;19972;-93
2022/08/01 12:09:44;;;;;;;;;;;28.80;99.90;;;;;;5118629;28;19928;-94
2022/08/01 12:12:11;;;;;;;;;;;28.80;99.90;;;;;;5118598;28;19932;-95
2022/08/01 12:14:37;;;;;;;;;;;28.80;99.90;;;;;;5118221;28;19928;-94
2022/08/01 12:17:04;;;;;;;;;;;28.80;99.90;;;;;;5118536;28;19920;-94
2022/08/01 12:19:31;;;;;;;;;;;28.90;99.90;;;;;;5118375;28;19908;-93
2022/08/01 12:22:09;;;;;;;;;;;29.00;99.90;;;;;;5117964;28;19932;-94
2022/08/01 12:24:36;;;;;;;;;;;29.10;99.90;;;;;;5118277;28;19912;-94
2022/08/01 12:27:03;;;;;;;;;;;29.30;99.90;;;;;;5118378;28;19912;-94
2022/08/01 12:29:37;;;;;;;;;;;29.30;99.90;;;;;;5118344;28;19909;-94
2022/08/01 12:32:04;;;;;;;;;;;29.40;99.90;;;;;;5118422;28;19908;-94
2022/08/01 12:34:33;;;;;;;;;;;29.20;99.90;;;;;;5118119;28;19940;-94
2022/08/01 12:37:01;;;;;;;;;;;29.30;99.90;;;;;;5118265;28;19932;-94
2022/08/01 12:39:34;;;;;;;;;;;29.30;99.90;;;;;;5118328;28;19928;-94
2022/08/01 12:42:01;;;;;;;;;;;29.10;99.90;;;;;;5118389;28;19928;-93
2022/08/01 12:44:28;;;;;;;;;;;29.00;99.90;;;;;;5118035;28;19936;-93
2022/08/01 12:46:55;;;;;;;;;;;28.70;99.90;;;;;;5118046;28;19950;-93
2022/08/01 12:49:22;;;;;;;;;;;28.60;99.90;;;;;;5118210;28;19912;-95
2022/08/01 12:51:50;;;;;;;;;;;28.30;99.90;;;;;;5118204;28;19912;-93
2022/08/01 12:54:16;;;;;;;;;;;28.10;99.90;;;;;;5118314;28;19932;-94
2022/08/01 12:56:45;;;;;;;;;;;27.90;99.90;;;;;;5118130;28;19912;-94
2022/08/01 12:59:24;;;;;;;;;;;27.90;99.90;;;;;;5118159;28;19928;-94
2022/08/01 13:01:52;;;;;;;;;;;27.60;99.90;;;;;;5118222;28;19936;-94
2022/08/01 13:04:19;;;;;;;;;;;27.40;99.90;;;;;;5118124;28;19920;-95
2022/08/01 13:06:45;;;;;;;;;;;27.20;99.90;;;;;;5117929;28;19924;-94
2022/08/01 13:09:13;;;;;;;;;;;27.10;99.90;;;;;;5117888;28;19915;-94
2022/08/01 13:11:40;;;;;;;;;;;27.10;99.90;;;;;;5117691;28;19912;-95
2022/08/01 13:14:08;;;;;;;;;;;27.10;99.90;;;;;;5117621;28;19914;-94
2022/08/01 13:19:41;;;;;;;;;;;27.10;99.90;;;;;;5117062;28;19908;-93
2022/08/01 13:22:08;;;;;;;;;;;27.10;99.90;;;;;;5117632;28;19939;-94
2022/08/01 13:24:35;;;;;;;;;;;27.30;99.90;;;;;;5117672;28;19912;-94
2022/08/01 13:27:03;;;;;;;;;;;27.40;99.90;;;;;;5117737;28;19912;-93
2022/08/01 13:29:32;;;;;;;;;;;27.60;99.90;;;;;;5117861;28;20036;-95
2022/08/01 13:31:59;;;;;;;;;;;28.00;99.90;;;;;;5117904;28;19926;-93
2022/08/01 13:34:33;;;;;;;;;;;28.10;99.90;;;;;;5120532;28;19928;-94
2022/08/01 13:37:01;;;;;;;;;;;28.10;99.90;;;;;;5121237;28;19935;-94
2022/08/01 13:39:44;;;;;;;;;;;28.20;99.90;;;;;;5121456;28;19908;-94
2022/08/01 13:42:11;;;;;;;;;;;28.20;99.90;;;;;;5121392;28;19926;-94
2022/08/01 13:44:39;;;;;;;;;;;28.30;99.90;;;;;;5121078;28;19931;-95
2022/08/01 13:47:07;;;;;;;;;;;28.40;99.90;;;;;;5121074;28;19942;-95
2022/08/01 13:49:34;;;;;;;;;;;28.30;99.90;;;;;;5121172;28;19908;-93
2022/08/01 13:52:01;;;;;;;;;;;28.20;99.90;;;;;;5121189;28;19920;-93
2022/08/01 13:54:28;;;;;;;;;;;28.30;99.90;;;;;;5121015;28;19936;-95
2022/08/01 13:56:55;;;;;;;;;;;28.50;99.90;;;;;;5120619;28;19912;-94
2022/08/01 13:59:21;;;;;;;;;;;28.60;99.90;;;;;;5121041;28;19908;-94
2022/08/01 14:01:50;;;;;;;;;;;28.70;99.90;;;;;;5120725;28;19924;-94
2022/08/01 14:04:17;;;;;;;;;;;28.80;99.90;;;;;;5120718;28;19912;-95
2022/08/01 14:06:43;;;;;;;;;;;28.80;99.90;;;;;;5120759;28;19915;-93
2022/08/01 14:09:10;;;;;;;;;;;28.80;99.90;;;;;;5120821;28;19939;-94
2022/08/01 14:11:40;;;;;;;;;;;28.60;99.90;;;;;;5120541;28;19919;-95
2022/08/01 14:14:07;;;;;;;;;;;28.60;99.60;;;;;;5120794;28;19934;-94
2022/08/01 14:16:34;;;;;;;;;;;28.50;99.90;;;;;;5120735;28;19912;-95
2022/08/01 14:19:02;;;;;;;;;;;28.70;99.90;;;;;;5120600;28;19912;-93
2022/08/01 14:21:29;;;;;;;;;;;28.50;99.90;;;;;;5120690;28;19924;-94
2022/08/01 14:23:56;;;;;;;;;;;28.60;99.90;;;;;;5120570;28;19928;-93
2022/08/01 14:26:22;;;;;;;;;;;28.70;99.90;;;;;;5120559;28;19915;-93
2022/08/01 14:28:49;;;;;;;;;;;28.80;99.90;;;;;;5120643;28;19931;-94